Red Lake, Canada
Current Conditions -  °F | °C
As of 1:24 PM on Thursday 30 Oct 2014 (Local Time) from CYRL Reporting Station
Snow Showers Snow Showers  
Wind Chill: 15°   Ceiling: 1500
Heat Index: 27°   Visibility: 10mi
Dew Point: 21°   Wind: 15mph
Humidity: 80%   Direction: 340°NNW
Pressure: 30.22"   Gusts: 30mph
Location:  51.09°N, 93.97°W
Report Text: CYRL 301824Z 34013G26KT 310V020 10SM -SHSN OVC015 M03/M06 A3022 RMK SC8 SLP256
Loading
Personal Weather Stations






























Interactive Weather Map
Tropical Storm Tracking
New forecast layout! Learn more

10-Day Weather Forecast

Advertisements
Track Severe Weather on mobile